createdAt,value
2018-03-24T00:02:20.140Z,36.83
2018-03-24T00:04:51.116Z,35.43
2018-03-24T00:07:22.098Z,39.43
2018-03-24T00:09:53.123Z,35.33
2018-03-24T00:12:24.108Z,34.47
2018-03-24T00:14:55.086Z,33.70
2018-03-24T00:17:26.095Z,33.00
2018-03-24T00:19:57.057Z,36.87
2018-03-24T00:22:28.063Z,33.20
2018-03-24T00:24:59.061Z,33.63
2018-03-24T00:27:30.029Z,35.23
2018-03-24T00:30:01.050Z,33.97
2018-03-24T00:32:32.044Z,34.23
2018-03-24T00:35:03.126Z,36.83
2018-03-24T00:37:34.092Z,34.60
2018-03-24T00:40:05.099Z,38.40
2018-03-24T00:42:36.029Z,36.50
2018-03-24T00:45:06.999Z,34.27
2018-03-24T00:47:37.987Z,36.20
2018-03-24T00:50:08.978Z,38.77
2018-03-24T00:52:39.990Z,38.07
2018-03-24T00:55:10.991Z,43.17
2018-03-24T00:57:42.003Z,50.63
2018-03-24T01:00:13.017Z,38.87
2018-03-24T01:02:44.009Z,42.57
2018-03-24T01:05:15.000Z,43.77
2018-03-24T01:07:46.015Z,47.23
2018-03-24T01:10:16.975Z,43.83
2018-03-24T01:12:47.974Z,42.07
2018-03-24T01:15:18.953Z,43.03
2018-03-24T01:17:49.982Z,42.93
2018-03-24T01:20:20.981Z,42.10
2018-03-24T01:22:51.985Z,45.50
2018-03-24T01:25:22.983Z,42.23
2018-03-24T01:27:53.936Z,42.77
2018-03-24T01:30:24.935Z,45.10
2018-03-24T01:32:55.898Z,44.27
2018-03-24T01:35:26.945Z,39.23
2018-03-24T01:37:57.893Z,42.90
2018-03-24T01:40:28.902Z,42.00
2018-03-24T01:42:59.858Z,43.57
2018-03-24T01:45:30.803Z,41.53
2018-03-24T01:48:01.778Z,41.73
2018-03-24T01:50:32.746Z,42.03
2018-03-24T01:53:03.786Z,42.50
2018-03-24T01:55:34.801Z,44.05
2018-03-24T01:58:05.800Z,41.30
2018-03-24T02:00:36.817Z,45.63
2018-03-24T02:03:07.833Z,41.07
2018-03-24T02:05:38.865Z,44.10
2018-03-24T02:08:09.903Z,42.77
2018-03-24T02:10:40.907Z,43.23
2018-03-24T02:13:11.916Z,43.00
2018-03-24T02:15:42.933Z,45.07
2018-03-24T02:18:13.941Z,42.67
2018-03-24T02:20:45.041Z,44.93
2018-03-24T02:23:16.004Z,38.97
2018-03-24T02:25:47.056Z,42.83
2018-03-24T02:28:18.051Z,47.80
2018-03-24T02:30:49.065Z,45.37
2018-03-24T02:33:20.110Z,41.75
2018-03-24T02:35:51.081Z,49.00
2018-03-24T02:38:22.112Z,40.13
2018-03-24T02:40:53.140Z,47.37
2018-03-24T02:43:24.174Z,51.03
2018-03-24T02:45:55.196Z,49.67
2018-03-24T02:48:26.209Z,47.65
2018-03-24T02:50:57.185Z,50.15
2018-03-24T02:53:28.279Z,54.67
2018-03-24T02:55:59.286Z,55.92
2018-03-24T02:58:30.303Z,57.13
2018-03-24T03:01:01.310Z,54.75
2018-03-24T03:03:32.324Z,58.25
2018-03-24T03:06:03.310Z,61.15
2018-03-24T03:08:34.317Z,59.40
2018-03-24T03:11:05.346Z,59.60
2018-03-24T03:13:36.335Z,61.92
2018-03-24T03:16:07.369Z,62.97
2018-03-24T03:18:38.321Z,68.32
2018-03-24T03:21:09.336Z,69.73
2018-03-24T03:23:40.307Z,66.00
2018-03-24T03:26:11.279Z,72.30
2018-03-24T03:28:42.278Z,83.57
2018-03-24T03:31:15.308Z,78.00
2018-03-24T03:33:46.283Z,79.32
2018-03-24T03:36:17.268Z,73.40
2018-03-24T03:38:48.268Z,77.70
2018-03-24T03:41:19.236Z,78.60
2018-03-24T03:43:50.219Z,81.50
2018-03-24T03:46:21.209Z,91.77
2018-03-24T03:48:52.184Z,90.20
2018-03-24T03:51:23.175Z,86.43
2018-03-24T03:53:54.189Z,86.00
2018-03-24T03:56:25.209Z,82.35
2018-03-24T03:58:56.204Z,89.25
2018-03-24T04:01:27.195Z,89.70
2018-03-24T04:03:58.217Z,83.37
2018-03-24T04:06:29.233Z,82.07
2018-03-24T04:09:00.176Z,86.65
2018-03-24T04:11:31.169Z,84.57
2018-03-24T04:14:02.147Z,83.17
2018-03-24T04:16:33.206Z,82.97
2018-03-24T04:19:04.169Z,88.43
2018-03-24T04:21:35.184Z,88.53
2018-03-24T04:24:06.169Z,84.87
2018-03-24T04:26:37.165Z,86.97
2018-03-24T04:29:08.164Z,93.40
2018-03-24T04:31:39.209Z,87.80
2018-03-24T04:34:10.185Z,79.75
2018-03-24T04:36:41.212Z,81.50
2018-03-24T04:39:12.192Z,80.53
2018-03-24T04:41:43.183Z,71.63
2018-03-24T04:44:14.163Z,82.53
2018-03-24T04:46:45.200Z,78.13
2018-03-24T04:49:16.201Z,84.82
2018-03-24T04:51:47.214Z,77.60
2018-03-24T04:54:18.220Z,86.63
2018-03-24T04:56:49.214Z,86.37
2018-03-24T04:59:20.232Z,81.33
2018-03-24T05:01:51.186Z,86.75
2018-03-24T05:04:22.173Z,89.30
2018-03-24T05:06:53.216Z,89.18
2018-03-24T05:09:24.225Z,85.62
2018-03-24T05:11:55.168Z,94.68
2018-03-24T05:14:26.196Z,96.10
2018-03-24T05:16:57.238Z,104.22
2018-03-24T05:19:28.225Z,92.10
2018-03-24T05:21:59.194Z,97.20
2018-03-24T05:24:37.028Z,93.70
2018-03-24T05:27:08.024Z,97.07
2018-03-24T05:29:38.982Z,98.17
2018-03-24T05:32:10.009Z,94.47
2018-03-24T05:34:40.980Z,97.62
2018-03-24T05:37:12.006Z,93.00
2018-03-24T05:39:42.973Z,84.15
2018-03-24T05:42:14.012Z,89.07
2018-03-24T05:44:45.016Z,72.97
2018-03-24T05:47:16.036Z,74.43
2018-03-24T05:49:47.017Z,64.72
2018-03-24T05:52:18.003Z,72.60
2018-03-24T05:54:49.008Z,67.50
2018-03-24T05:57:19.958Z,67.90
2018-03-24T05:59:50.973Z,68.83
2018-03-24T06:02:21.970Z,58.75
2018-03-24T06:04:52.971Z,54.23
2018-03-24T06:07:23.990Z,61.57
2018-03-24T06:09:55.008Z,62.05
2018-03-24T06:12:25.992Z,51.90
2018-03-24T06:14:56.988Z,51.80
2018-03-24T06:17:27.982Z,49.37
2018-03-24T06:19:58.987Z,46.10
2018-03-24T06:22:29.992Z,51.47
2018-03-24T06:25:00.977Z,51.80
2018-03-24T06:27:32.003Z,50.70
2018-03-24T06:30:03.981Z,50.10
2018-03-24T06:32:42.008Z,53.97
2018-03-24T06:35:12.999Z,55.23
2018-03-24T06:37:44.022Z,46.93
2018-03-24T06:40:15.047Z,59.73
2018-03-24T06:42:46.030Z,59.63
2018-03-24T06:45:17.074Z,50.80
2018-03-24T06:47:48.028Z,60.90
2018-03-24T06:50:19.043Z,53.90
2018-03-24T06:52:50.023Z,51.80
2018-03-24T06:55:21.064Z,55.97
2018-03-24T06:57:52.078Z,47.47
2018-03-24T07:00:23.078Z,61.57
2018-03-24T07:02:54.087Z,55.83
2018-03-24T07:05:25.116Z,55.73
2018-03-24T07:07:56.127Z,56.83
2018-03-24T07:10:27.150Z,57.33
2018-03-24T07:12:58.138Z,57.97
2018-03-24T07:15:29.144Z,48.97
2018-03-24T07:18:00.171Z,54.77
2018-03-24T07:20:31.145Z,59.87
2018-03-24T07:23:02.179Z,53.13
2018-03-24T07:25:33.171Z,48.27
2018-03-24T07:28:04.201Z,49.77
2018-03-24T07:30:35.164Z,45.23
2018-03-24T07:33:06.148Z,45.63
2018-03-24T07:35:37.146Z,51.60
2018-03-24T07:38:08.189Z,40.33
2018-03-24T07:40:39.208Z,46.20
2018-03-24T07:43:10.296Z,42.37
2018-03-24T07:45:41.311Z,43.97
2018-03-24T07:48:12.270Z,39.33
2018-03-24T07:50:43.301Z,40.10
2018-03-24T07:53:14.326Z,40.03
2018-03-24T07:55:45.399Z,44.73
2018-03-24T07:58:16.416Z,43.93
2018-03-24T08:00:47.384Z,43.53
2018-03-24T08:03:18.351Z,43.00
2018-03-24T08:05:49.712Z,42.47
2018-03-24T08:08:20.697Z,37.87
2018-03-24T08:10:51.706Z,40.03
2018-03-24T08:13:22.699Z,36.27
2018-03-24T08:15:53.681Z,37.87
2018-03-24T08:18:24.650Z,37.23
2018-03-24T08:20:55.668Z,39.03
2018-03-24T08:23:26.657Z,37.43
2018-03-24T08:25:57.640Z,36.47
2018-03-24T08:28:28.645Z,35.27
2018-03-24T08:30:59.624Z,35.63
2018-03-24T08:33:30.591Z,36.53
2018-03-24T08:36:01.558Z,35.30
2018-03-24T08:38:32.566Z,35.07
2018-03-24T08:41:03.540Z,31.97
2018-03-24T08:43:34.505Z,31.90
2018-03-24T08:46:05.561Z,35.60
2018-03-24T08:48:36.546Z,33.73
2018-03-24T08:51:10.474Z,30.73
2018-03-24T08:53:41.467Z,33.70
2018-03-24T08:56:12.474Z,33.57
2018-03-24T08:58:43.506Z,34.90
2018-03-24T09:01:14.542Z,31.73
2018-03-24T09:03:45.496Z,29.43
2018-03-24T09:06:16.472Z,30.57
2018-03-24T09:08:47.496Z,29.67
2018-03-24T09:11:18.471Z,29.87
2018-03-24T09:13:49.434Z,29.17
2018-03-24T09:16:20.429Z,30.07
2018-03-24T09:18:51.421Z,29.37
2018-03-24T09:21:22.431Z,30.17
2018-03-24T09:23:53.429Z,29.57
2018-03-24T09:26:24.423Z,30.00
2018-03-24T09:28:55.391Z,28.13
2018-03-24T09:31:26.338Z,29.20
2018-03-24T09:33:57.351Z,27.30
2018-03-24T09:36:28.352Z,26.83
2018-03-24T09:38:59.303Z,27.10
2018-03-24T09:41:30.308Z,28.27
2018-03-24T09:44:01.303Z,27.40
2018-03-24T09:46:32.300Z,28.20
2018-03-24T09:49:03.328Z,27.35
2018-03-24T09:51:34.327Z,25.67
2018-03-24T09:54:05.324Z,27.30
2018-03-24T09:56:36.333Z,24.87
2018-03-24T09:59:07.312Z,23.63
2018-03-24T10:01:38.326Z,24.27
2018-03-24T10:04:09.276Z,22.30
2018-03-24T10:06:40.279Z,20.42
2018-03-24T10:09:11.315Z,20.88
2018-03-24T10:11:42.304Z,20.75
2018-03-24T10:14:13.291Z,22.50
2018-03-24T10:16:44.324Z,23.25
2018-03-24T10:19:15.299Z,22.97
2018-03-24T10:24:54.405Z,22.53
2018-03-24T10:27:25.388Z,20.10
2018-03-24T10:29:56.360Z,20.23
2018-03-24T10:32:27.411Z,20.70
2018-03-24T10:35:04.548Z,20.77
2018-03-24T10:37:41.632Z,21.27
2018-03-24T10:40:12.582Z,21.67
2018-03-24T10:42:49.625Z,20.52
2018-03-24T10:45:20.612Z,21.10
2018-03-24T10:47:51.595Z,22.65
2018-03-24T10:50:22.567Z,23.80
2018-03-24T10:52:53.577Z,22.73
2018-03-24T10:55:24.550Z,22.37
2018-03-24T10:57:55.573Z,21.02
2018-03-24T11:00:32.425Z,21.55
2018-03-24T11:03:03.409Z,21.80
2018-03-24T11:05:34.459Z,21.63
2018-03-24T11:08:05.480Z,21.83
2018-03-24T11:10:36.501Z,22.60
2018-03-24T11:13:07.496Z,20.55
2018-03-24T11:15:38.505Z,19.67
2018-03-24T11:18:09.477Z,20.57
2018-03-24T11:20:40.475Z,21.02
2018-03-24T11:23:11.486Z,18.63
2018-03-24T11:25:42.472Z,18.93
2018-03-24T11:28:13.407Z,17.77
2018-03-24T11:30:44.367Z,18.20
2018-03-24T11:33:15.376Z,17.20
2018-03-24T11:35:46.389Z,18.40
2018-03-24T11:38:17.391Z,18.27
2018-03-24T11:40:48.378Z,17.87
2018-03-24T11:43:19.417Z,18.20
2018-03-24T11:45:50.462Z,16.90
2018-03-24T11:48:21.507Z,15.63
2018-03-24T11:50:52.477Z,15.53
2018-03-24T11:53:35.963Z,14.40
2018-03-24T11:56:06.953Z,14.60
2018-03-24T11:58:37.927Z,14.20
2018-03-24T12:01:08.924Z,15.00
2018-03-24T12:03:39.933Z,15.13
2018-03-24T12:06:10.932Z,13.03
2018-03-24T12:08:41.940Z,14.47
2018-03-24T12:11:12.923Z,14.47
2018-03-24T12:13:43.892Z,13.17
2018-03-24T12:16:14.873Z,14.40
2018-03-24T12:18:45.868Z,12.80
2018-03-24T12:21:16.864Z,13.50
2018-03-24T12:23:47.874Z,14.13
2018-03-24T12:26:18.834Z,13.93
2018-03-24T12:28:49.860Z,14.90
2018-03-24T12:31:20.827Z,14.67
2018-03-24T12:33:51.821Z,15.37
2018-03-24T12:36:22.789Z,15.23
2018-03-24T12:38:53.823Z,15.70
2018-03-24T12:41:24.828Z,16.30
2018-03-24T12:43:55.782Z,16.60
2018-03-24T12:46:26.788Z,15.87
2018-03-24T12:48:57.778Z,16.63
2018-03-24T12:51:28.775Z,15.47
2018-03-24T12:53:59.797Z,16.67
2018-03-24T12:56:30.804Z,17.40
2018-03-24T12:59:01.807Z,17.67
2018-03-24T13:01:32.780Z,17.43
2018-03-24T13:04:03.744Z,18.43
2018-03-24T13:06:34.739Z,20.67
2018-03-24T13:09:05.762Z,18.17
2018-03-24T13:11:36.778Z,17.07
2018-03-24T13:14:07.759Z,21.03
2018-03-24T13:16:38.729Z,19.73
2018-03-24T13:19:09.738Z,18.57
2018-03-24T13:21:40.727Z,18.40
2018-03-24T13:24:11.742Z,19.40
2018-03-24T13:26:43.632Z,18.37
2018-03-24T13:29:14.611Z,19.10
2018-03-24T13:31:45.611Z,18.03
2018-03-24T13:34:16.585Z,17.40
2018-03-24T13:36:47.597Z,18.13
2018-03-24T13:39:18.616Z,20.30
2018-03-24T13:41:49.584Z,19.40
2018-03-24T13:44:20.558Z,19.70
2018-03-24T13:46:51.578Z,18.77
2018-03-24T13:49:22.604Z,18.23
2018-03-24T13:51:53.586Z,20.00
2018-03-24T13:54:24.630Z,19.87
2018-03-24T13:56:55.633Z,17.57
2018-03-24T13:59:26.657Z,19.73
2018-03-24T14:01:57.658Z,18.60
2018-03-24T14:04:28.675Z,17.83
2018-03-24T14:06:59.645Z,17.63
2018-03-24T14:09:30.653Z,18.93
2018-03-24T14:12:01.674Z,19.07
2018-03-24T14:14:32.659Z,19.03
2018-03-24T14:17:03.674Z,18.77
2018-03-24T14:19:34.647Z,18.73
2018-03-24T14:22:05.660Z,19.17
2018-03-24T14:24:36.649Z,18.20
2018-03-24T14:27:07.693Z,18.30
2018-03-24T14:29:38.690Z,18.27
2018-03-24T14:32:09.668Z,19.57
2018-03-24T14:34:40.665Z,18.27
2018-03-24T14:37:11.682Z,19.33
2018-03-24T14:39:42.702Z,17.97
2018-03-24T14:42:13.700Z,19.20
2018-03-24T14:44:44.732Z,19.90
2018-03-24T14:47:15.784Z,18.53
2018-03-24T14:49:46.817Z,20.50
2018-03-24T14:52:17.820Z,20.60
2018-03-24T14:54:48.780Z,18.87
2018-03-24T14:57:19.744Z,17.93
2018-03-24T14:59:50.758Z,17.73
2018-03-24T15:02:21.810Z,17.40
2018-03-24T15:04:52.767Z,18.63
2018-03-24T15:07:23.803Z,16.27
2018-03-24T15:09:54.792Z,18.03
2018-03-24T15:12:25.792Z,17.00
2018-03-24T15:14:56.787Z,16.60
2018-03-24T15:17:27.786Z,20.37
2018-03-24T15:19:58.779Z,18.13
2018-03-24T15:22:29.749Z,16.77
2018-03-24T15:25:00.759Z,18.13
2018-03-24T15:27:31.766Z,17.83
2018-03-24T15:30:15.051Z,19.13
2018-03-24T15:36:02.376Z,15.73
2018-03-24T15:38:33.360Z,16.50
2018-03-24T15:41:04.369Z,17.23
2018-03-24T15:43:35.335Z,17.20
2018-03-24T15:46:06.385Z,15.83
2018-03-24T15:48:37.390Z,16.77
2018-03-24T15:51:08.390Z,16.07
2018-03-24T15:53:39.373Z,16.80
2018-03-24T15:56:10.409Z,16.60
2018-03-24T15:58:41.395Z,16.60
2018-03-24T16:01:12.395Z,17.40
2018-03-24T16:03:43.427Z,16.53
2018-03-24T16:06:14.413Z,14.53
2018-03-24T16:08:45.987Z,15.17
2018-03-24T16:11:17.002Z,16.43
2018-03-24T16:13:47.973Z,14.37
2018-03-24T16:16:18.975Z,15.43
2018-03-24T16:18:49.998Z,15.10
2018-03-24T16:21:21.060Z,19.80
2018-03-24T16:23:53.015Z,17.70
2018-03-24T16:26:23.966Z,14.97
2018-03-24T16:28:54.961Z,16.33
2018-03-24T16:31:26.005Z,15.73
2018-03-24T16:33:57.058Z,16.20
2018-03-24T16:36:28.061Z,16.57
2018-03-24T16:38:59.106Z,15.93
2018-03-24T16:41:30.096Z,17.47
2018-03-24T16:44:01.134Z,17.40
2018-03-24T16:46:32.147Z,17.43
2018-03-24T16:49:03.191Z,15.67
2018-03-24T16:51:34.273Z,15.27
2018-03-24T16:54:05.272Z,17.90
2018-03-24T16:56:36.252Z,16.23
2018-03-24T16:59:07.213Z,16.50
2018-03-24T17:01:38.226Z,16.70
2018-03-24T17:04:09.203Z,15.87
2018-03-24T17:06:40.206Z,16.87
2018-03-24T17:09:11.177Z,16.33
2018-03-24T17:11:42.193Z,15.53
2018-03-24T17:14:13.225Z,15.97
2018-03-24T17:16:44.238Z,16.43
2018-03-24T17:19:15.231Z,15.17
2018-03-24T17:21:46.232Z,16.97
2018-03-24T17:24:17.242Z,15.77
2018-03-24T17:26:48.254Z,16.67
2018-03-24T17:29:19.308Z,16.50
2018-03-24T17:31:50.263Z,19.03
2018-03-24T17:34:21.243Z,15.50
2018-03-24T17:36:52.209Z,16.23
2018-03-24T17:39:23.262Z,18.33
2018-03-24T17:41:54.312Z,15.70
2018-03-24T17:44:25.385Z,17.47
2018-03-24T17:46:56.357Z,18.77
2018-03-24T17:49:27.391Z,18.27
2018-03-24T17:51:58.413Z,16.60
2018-03-24T17:54:29.410Z,17.80
2018-03-24T17:57:00.468Z,16.53
2018-03-24T17:59:31.503Z,18.70
2018-03-24T18:02:02.486Z,18.27
2018-03-24T18:04:33.519Z,16.10
2018-03-24T18:07:04.587Z,18.67
2018-03-24T18:09:35.626Z,16.47
2018-03-24T18:12:06.632Z,21.57
2018-03-24T18:14:37.613Z,18.23
2018-03-24T18:17:08.654Z,17.47
2018-03-24T18:19:39.637Z,17.30
2018-03-24T18:22:10.642Z,19.73
2018-03-24T18:24:41.606Z,17.87
2018-03-24T18:27:12.616Z,17.50
2018-03-24T18:29:43.624Z,18.80
2018-03-24T18:32:14.581Z,17.30
2018-03-24T18:34:45.571Z,16.47
2018-03-24T18:37:16.582Z,19.87
2018-03-24T18:39:47.547Z,19.50
2018-03-24T18:42:18.553Z,23.40
2018-03-24T18:44:49.563Z,25.67
2018-03-24T18:47:20.588Z,20.40
2018-03-24T18:49:51.607Z,23.33
2018-03-24T18:52:22.584Z,23.07
2018-03-24T18:54:53.574Z,22.17
2018-03-24T18:57:24.551Z,22.37
2018-03-24T18:59:55.555Z,19.47
2018-03-24T19:02:26.552Z,18.93
2018-03-24T19:04:57.517Z,24.07
2018-03-24T19:07:28.491Z,23.67
2018-03-24T19:09:59.432Z,23.70
2018-03-24T19:12:30.466Z,23.30
2018-03-24T19:15:01.439Z,27.03
2018-03-24T19:17:39.280Z,28.73
2018-03-24T19:20:10.256Z,25.37
2018-03-24T19:22:41.287Z,25.07
2018-03-24T19:25:12.301Z,23.40
2018-03-24T19:27:43.312Z,22.90
2018-03-24T19:30:14.303Z,32.23
2018-03-24T19:32:45.276Z,26.27
2018-03-24T19:35:16.285Z,27.57
2018-03-24T19:37:47.309Z,24.77
2018-03-24T19:40:18.306Z,25.67
2018-03-24T19:42:49.299Z,26.27
2018-03-24T19:45:20.306Z,32.63
2018-03-24T19:47:51.370Z,21.93
2018-03-24T19:50:22.386Z,23.87
2018-03-24T19:52:53.347Z,24.73
2018-03-24T19:55:24.390Z,22.33
2018-03-24T19:57:55.403Z,22.63
2018-03-24T20:00:26.401Z,22.07
2018-03-24T20:02:57.365Z,22.37
2018-03-24T20:05:28.322Z,22.50
2018-03-24T20:07:59.332Z,22.57
2018-03-24T20:10:30.290Z,22.80
2018-03-24T20:13:01.296Z,22.23
2018-03-24T20:15:32.324Z,21.80
2018-03-24T20:18:03.416Z,26.03
2018-03-24T20:20:34.437Z,30.13
2018-03-24T20:23:05.455Z,25.07
2018-03-24T20:25:36.428Z,29.57
2018-03-24T20:28:07.463Z,28.60
2018-03-24T20:30:38.415Z,28.47
2018-03-24T20:33:09.390Z,27.53
2018-03-24T20:35:40.421Z,26.73
2018-03-24T20:38:11.430Z,24.83
2018-03-24T20:40:42.439Z,21.67
2018-03-24T20:43:13.446Z,23.60
2018-03-24T20:45:44.468Z,22.70
2018-03-24T20:48:15.466Z,19.73
2018-03-24T20:50:46.469Z,20.73
2018-03-24T20:53:17.441Z,21.07
2018-03-24T20:55:48.445Z,18.43
2018-03-24T20:58:19.466Z,18.07
2018-03-24T21:00:50.489Z,18.37
2018-03-24T21:03:21.501Z,20.60
2018-03-24T21:05:52.514Z,20.40
2018-03-24T21:08:23.492Z,22.43
2018-03-24T21:10:54.458Z,21.07
2018-03-24T21:13:25.484Z,20.60
2018-03-24T21:15:56.469Z,22.00
2018-03-24T21:18:27.486Z,22.17
2018-03-24T21:20:58.463Z,21.87
2018-03-24T21:23:29.505Z,23.83
2018-03-24T21:26:00.507Z,20.30
2018-03-24T21:28:31.482Z,22.30
2018-03-24T21:31:02.471Z,20.60
2018-03-24T21:33:33.471Z,21.23
2018-03-24T21:36:04.460Z,23.43
2018-03-24T21:38:35.480Z,25.53
2018-03-24T21:41:06.479Z,22.33
2018-03-24T21:43:37.538Z,21.90
2018-03-24T21:46:08.579Z,22.23
2018-03-24T21:48:39.546Z,22.70
2018-03-24T21:51:10.558Z,19.90
2018-03-24T21:53:41.554Z,26.37
2018-03-24T21:56:12.552Z,27.47
2018-03-24T21:58:43.554Z,27.97
2018-03-24T22:01:14.513Z,21.07
2018-03-24T22:03:45.493Z,25.47
2018-03-24T22:06:16.495Z,22.63
2018-03-24T22:08:47.527Z,24.53
2018-03-24T22:11:18.503Z,25.88
2018-03-24T22:13:49.487Z,21.73
2018-03-24T22:16:20.490Z,27.27
2018-03-24T22:18:51.427Z,23.70
2018-03-24T22:21:22.426Z,26.83
2018-03-24T22:23:53.373Z,28.03
2018-03-24T22:26:24.340Z,27.03
2018-03-24T22:28:55.350Z,22.67
2018-03-24T22:31:26.344Z,26.17
2018-03-24T22:33:57.308Z,27.07
2018-03-24T22:36:28.308Z,24.10
2018-03-24T22:38:59.325Z,27.23
2018-03-24T22:41:30.349Z,25.08
2018-03-24T22:44:01.372Z,27.20
2018-03-24T22:46:32.373Z,27.35
2018-03-24T22:49:03.415Z,27.30
2018-03-24T22:51:34.398Z,29.45
2018-03-24T22:54:05.408Z,32.40
2018-03-24T22:56:36.396Z,28.42
2018-03-24T22:59:07.393Z,27.37
2018-03-24T23:01:38.383Z,32.00
2018-03-24T23:04:09.429Z,29.33
2018-03-24T23:06:40.429Z,27.57
2018-03-24T23:09:11.486Z,30.35
2018-03-24T23:11:42.446Z,31.30
2018-03-24T23:14:13.455Z,27.17
2018-03-24T23:16:44.432Z,27.73
2018-03-24T23:19:15.439Z,28.67
2018-03-24T23:21:46.454Z,29.75
2018-03-24T23:24:17.459Z,24.50
2018-03-24T23:26:48.478Z,28.57
2018-03-24T23:29:19.509Z,31.55
2018-03-24T23:31:50.515Z,27.02
2018-03-24T23:34:21.493Z,33.37
2018-03-24T23:36:52.471Z,29.80
2018-03-24T23:39:23.479Z,29.53
2018-03-24T23:41:54.551Z,29.08
2018-03-24T23:44:25.577Z,31.70
2018-03-24T23:46:56.523Z,30.20
2018-03-24T23:49:27.507Z,32.87
2018-03-24T23:51:58.465Z,29.10
2018-03-24T23:54:29.474Z,29.63
2018-03-24T23:57:00.487Z,30.00
2018-03-24T23:59:31.486Z,26.08
